Time;durP1;ratioP1;P1;durP2;ratioP2;P2;SDS_P1;SDS_P2;PMS_P1;PMS_P2;Temp;Humidity;BMP_temperature;BMP_pressure;BME280_temperature;BME280_humidity;BME280_pressure;Samples;Min_cycle;Max_cycle;Signal;HPM_P1;HPM_P2
2022/11/30 00:00:15;;;;;;;0.40;0.40;;;15.00;92.70;;;;;;5054665;28;20303;-64
2022/11/30 00:03:03;;;;;;;0.40;0.40;;;15.10;93.00;;;;;;5054324;28;20422;-63
2022/11/30 00:05:51;;;;;;;0.50;0.50;;;15.10;92.60;;;;;;5054372;28;20197;-65
2022/11/30 00:08:40;;;;;;;0.40;0.40;;;15.10;92.60;;;;;;5054432;28;20304;-64
2022/11/30 00:11:28;;;;;;;0.40;0.40;;;15.10;92.60;;;;;;5053820;28;20280;-64
2022/11/30 00:14:16;;;;;;;0.40;0.40;;;15.10;92.60;;;;;;5054320;28;20209;-65
2022/11/30 00:17:06;;;;;;;0.40;0.40;;;15.10;92.60;;;;;;5054017;28;20737;-64
2022/11/30 00:19:54;;;;;;;2.88;2.40;;;15.10;92.60;;;;;;5053707;28;20209;-64
2022/11/30 00:22:42;;;;;;;1.23;1.23;;;15.10;92.60;;;;;;5053888;28;20279;-64
2022/11/30 00:25:30;;;;;;;0.40;0.40;;;15.10;92.60;;;;;;5053749;28;20239;-64
2022/11/30 00:28:18;;;;;;;0.50;0.50;;;15.10;92.60;;;;;;5053874;28;20761;-64
2022/11/30 00:31:08;;;;;;;0.50;0.50;;;15.10;92.60;;;;;;5053377;28;20282;-63
2022/11/30 00:33:57;;;;;;;0.40;0.40;;;15.00;92.60;;;;;;5053954;28;20264;-63
2022/11/30 00:36:46;;;;;;;0.40;0.40;;;15.00;92.60;;;;;;5054043;28;20201;-64
2022/11/30 00:39:34;;;;;;;0.68;0.68;;;15.00;92.60;;;;;;5053459;28;20277;-64
2022/11/30 00:42:22;;;;;;;0.40;0.40;;;15.00;92.60;;;;;;5053665;28;20221;-64
2022/11/30 00:45:11;;;;;;;0.40;0.40;;;15.00;92.60;;;;;;5053910;28;20239;-63
2022/11/30 00:47:59;;;;;;;1.27;1.23;;;15.00;92.60;;;;;;5053137;28;20239;-63
2022/11/30 00:50:49;;;;;;;0.40;0.40;;;15.00;92.60;;;;;;5053472;28;20194;-65
2022/11/30 00:53:38;;;;;;;0.40;0.40;;;15.00;92.70;;;;;;5053740;28;20244;-64
2022/11/30 00:56:26;;;;;;;0.40;0.40;;;15.00;92.70;;;;;;5053729;28;20244;-64
2022/11/30 00:59:14;;;;;;;0.40;0.40;;;15.00;92.70;;;;;;5053576;28;20204;-63
2022/11/30 01:02:02;;;;;;;0.40;0.40;;;15.00;92.70;;;;;;5053810;28;20307;-64
2022/11/30 01:04:50;;;;;;;0.40;0.40;;;14.90;92.70;;;;;;5053334;28;20201;-63
2022/11/30 01:07:39;;;;;;;0.80;0.80;;;14.90;92.70;;;;;;5055770;28;20312;-67
2022/11/30 01:10:27;;;;;;;0.40;0.40;;;14.90;92.70;;;;;;5056648;28;20691;-63
2022/11/30 01:13:16;;;;;;;0.87;0.87;;;14.90;92.70;;;;;;5057420;28;20217;-66
2022/11/30 01:16:10;;;;;;;0.40;0.40;;;14.90;92.70;;;;;;5057321;28;20243;-64
2022/11/30 01:18:59;;;;;;;0.40;0.40;;;15.00;93.00;;;;;;5057695;28;20767;-63
2022/11/30 01:21:47;;;;;;;0.40;0.40;;;15.00;97.00;;;;;;5057912;28;20201;-64
2022/11/30 01:24:36;;;;;;;0.40;0.40;;;15.00;92.60;;;;;;5057232;28;20198;-73
2022/11/30 01:27:24;;;;;;;0.40;0.40;;;15.00;92.60;;;;;;5057133;28;20207;-64
2022/11/30 01:30:13;;;;;;;0.40;0.40;;;15.10;92.60;;;;;;5057013;28;20571;-64
2022/11/30 01:33:02;;;;;;;0.40;0.40;;;15.10;92.60;;;;;;5057061;28;20229;-64
2022/11/30 01:35:58;;;;;;;0.40;0.40;;;15.10;92.60;;;;;;5057261;28;20315;-64
2022/11/30 01:38:49;;;;;;;0.40;0.40;;;15.10;92.60;;;;;;5057758;28;20194;-63
2022/11/30 01:41:38;;;;;;;0.40;0.40;;;15.10;92.60;;;;;;5056668;28;20220;-64
2022/11/30 01:44:54;;;;;;;1.63;1.53;;;15.10;92.50;;;;;;5056853;28;20241;-63
2022/11/30 01:47:45;;;;;;;0.40;0.40;;;15.10;92.50;;;;;;5056799;28;20350;-63
2022/11/30 01:50:35;;;;;;;0.40;0.40;;;15.10;92.60;;;;;;5056778;28;20535;-63
2022/11/30 01:53:24;;;;;;;0.40;0.40;;;15.10;92.60;;;;;;5057053;28;20229;-64
2022/11/30 01:56:12;;;;;;;0.40;0.40;;;15.00;92.50;;;;;;5056901;28;20201;-64
2022/11/30 01:59:01;;;;;;;0.75;0.75;;;15.00;92.50;;;;;;5056546;28;20193;-63
2022/11/30 02:01:50;;;;;;;0.40;0.40;;;15.00;92.40;;;;;;5056699;28;20211;-63
2022/11/30 02:04:39;;;;;;;0.40;0.40;;;15.00;92.50;;;;;;5056693;28;20205;-64
2022/11/30 02:07:27;;;;;;;0.40;0.40;;;15.00;92.50;;;;;;5056136;28;20272;-63
2022/11/30 02:10:17;;;;;;;0.40;0.40;;;15.00;92.50;;;;;;5056112;28;20284;-63
2022/11/30 02:13:26;;;;;;;0.40;0.40;;;15.00;92.50;;;;;;5056502;28;20248;-63
2022/11/30 02:16:26;;;;;;;0.40;0.40;;;15.00;92.60;;;;;;5056595;28;20303;-64
2022/11/30 02:19:43;;;;;;;0.57;0.57;;;14.90;92.50;;;;;;5055945;28;20201;-63
2022/11/30 02:22:46;;;;;;;0.40;0.40;;;14.90;92.50;;;;;;5055918;28;20300;-64
2022/11/30 02:25:44;;;;;;;0.40;0.40;;;14.90;92.60;;;;;;5055866;28;20561;-64
2022/11/30 02:28:56;;;;;;;1.13;1.13;;;14.90;92.60;;;;;;5070423;28;20314;-62
2022/11/30 02:31:54;;;;;;;0.50;0.50;;;14.90;94.10;;;;;;5055993;28;20280;-63
2022/11/30 02:34:44;;;;;;;0.93;0.93;;;14.90;92.50;;;;;;5056564;28;20254;-63
2022/11/30 02:37:35;;;;;;;0.40;0.40;;;15.10;92.70;;;;;;5055700;28;20212;-63
2022/11/30 02:40:24;;;;;;;0.40;0.40;;;15.00;92.60;;;;;;5056131;28;20666;-63
2022/11/30 02:43:12;;;;;;;2.00;1.90;;;15.00;92.60;;;;;;5056039;28;20260;-64
2022/11/30 02:46:11;;;;;;;0.40;0.40;;;15.00;92.50;;;;;;5056440;28;20201;-64
2022/11/30 02:49:06;;;;;;;0.40;0.40;;;15.00;92.50;;;;;;5055537;28;20635;-64
2022/11/30 02:51:56;;;;;;;0.40;0.40;;;15.00;92.30;;;;;;5055600;28;20198;-63
2022/11/30 02:54:45;;;;;;;0.40;0.40;;;15.10;92.50;;;;;;5056232;28;20303;-63
2022/11/30 02:57:33;;;;;;;0.40;0.40;;;15.10;92.50;;;;;;5056148;28;20282;-64
2022/11/30 03:00:22;;;;;;;0.40;0.40;;;15.10;92.40;;;;;;5054496;28;20233;-63
2022/11/30 03:03:11;;;;;;;0.50;0.50;;;15.10;92.40;;;;;;5055200;28;20225;-66
2022/11/30 03:05:59;;;;;;;0.40;0.40;;;15.10;92.40;;;;;;5056112;28;20256;-69
2022/11/30 03:08:47;;;;;;;2.92;2.72;;;15.10;92.40;;;;;;5055423;28;20236;-64
2022/11/30 03:11:35;;;;;;;0.50;0.50;;;15.10;92.20;;;;;;5055834;28;20284;-63
2022/11/30 03:14:24;;;;;;;11.70;10.90;;;15.10;92.40;;;;;;5055048;28;20236;-62
2022/11/30 03:17:12;;;;;;;0.50;0.50;;;15.10;92.30;;;;;;5055756;28;20260;-63
2022/11/30 03:20:01;;;;;;;0.40;0.40;;;15.10;92.40;;;;;;5054987;28;20205;-63
2022/11/30 03:22:49;;;;;;;0.40;0.40;;;15.00;92.30;;;;;;5055843;28;20338;-63
2022/11/30 03:25:37;;;;;;;0.40;0.40;;;15.10;92.40;;;;;;5055931;28;20685;-62
2022/11/30 03:28:25;;;;;;;0.40;0.40;;;15.00;92.30;;;;;;5055338;28;20675;-63
2022/11/30 03:31:14;;;;;;;2.30;2.20;;;15.00;92.30;;;;;;5055014;28;20319;-63
2022/11/30 03:34:02;;;;;;;0.68;0.68;;;15.00;92.40;;;;;;5055320;28;20205;-64
2022/11/30 03:36:52;;;;;;;0.40;0.40;;;15.00;92.40;;;;;;5054702;28;20302;-64
2022/11/30 03:39:40;;;;;;;0.40;0.40;;;15.00;92.40;;;;;;5054147;28;20338;-63
2022/11/30 03:42:28;;;;;;;0.40;0.40;;;15.00;92.40;;;;;;5054731;28;20638;-63
2022/11/30 03:45:16;;;;;;;0.40;0.40;;;14.90;92.30;;;;;;5054685;28;20280;-64
2022/11/30 03:48:04;;;;;;;1.73;1.67;;;14.90;92.30;;;;;;5054848;28;20284;-63
2022/11/30 03:50:52;;;;;;;0.40;0.40;;;15.00;92.50;;;;;;5053936;28;20351;-63
2022/11/30 03:53:41;;;;;;;0.40;0.40;;;14.90;92.40;;;;;;5054954;28;20890;-64
2022/11/30 03:56:29;;;;;;;0.40;0.40;;;14.90;92.40;;;;;;5054648;28;20193;-64
2022/11/30 03:59:17;;;;;;;0.40;0.40;;;15.00;92.40;;;;;;5054054;28;20229;-63
2022/11/30 04:02:05;;;;;;;0.70;0.70;;;15.00;92.50;;;;;;5054418;28;20298;-64
2022/11/30 04:04:54;;;;;;;0.85;0.85;;;15.00;92.50;;;;;;5054349;28;20231;-64
2022/11/30 04:07:42;;;;;;;0.50;0.50;;;15.00;92.40;;;;;;5054640;28;20240;-64
2022/11/30 04:10:32;;;;;;;4.85;4.53;;;15.00;92.40;;;;;;5054543;28;20218;-62
2022/11/30 04:13:21;;;;;;;0.40;0.40;;;15.10;92.30;;;;;;5054638;28;20305;-63
2022/11/30 04:16:09;;;;;;;0.40;0.40;;;15.00;92.30;;;;;;5053166;28;20203;-64
2022/11/30 04:18:57;;;;;;;0.40;0.40;;;15.00;92.30;;;;;;5054428;28;20276;-65
2022/11/30 04:21:45;;;;;;;3.00;2.90;;;15.10;92.10;;;;;;5054770;28;20751;-63
2022/11/30 04:24:33;;;;;;;0.40;0.40;;;15.10;92.30;;;;;;5053829;28;20751;-63
2022/11/30 04:27:23;;;;;;;0.40;0.40;;;15.10;92.30;;;;;;5053767;28;20328;-63
2022/11/30 04:30:12;;;;;;;0.40;0.40;;;15.10;92.30;;;;;;5053381;28;20290;-63
2022/11/30 04:33:00;;;;;;;0.40;0.40;;;15.10;92.00;;;;;;5087176;22;20335;-63
2022/11/30 04:35:53;;;;;;;0.40;0.40;;;15.10;92.30;;;;;;5071773;28;20257;-63
2022/11/30 04:38:41;;;;;;;0.40;0.40;;;15.10;92.30;;;;;;5071544;28;20330;-63
2022/11/30 04:41:29;;;;;;;0.40;0.40;;;15.00;92.20;;;;;;5069385;28;20278;-63
2022/11/30 04:44:18;;;;;;;0.80;0.80;;;15.10;92.20;;;;;;5071786;28;20313;-61
2022/11/30 04:47:06;;;;;;;0.50;0.50;;;15.00;92.20;;;;;;5071826;28;20283;-64
2022/11/30 04:49:54;;;;;;;0.40;0.40;;;15.00;92.20;;;;;;5071990;28;20296;-61
2022/11/30 04:52:42;;;;;;;15.50;14.50;;;15.00;92.20;;;;;;5071996;28;20306;-61
2022/11/30 04:55:31;;;;;;;0.40;0.40;;;15.00;92.20;;;;;;5071990;28;20285;-62
2022/11/30 04:58:19;;;;;;;0.50;0.50;;;15.00;92.20;;;;;;5071935;28;20592;-62
2022/11/30 05:01:08;;;;;;;2.90;2.70;;;15.00;92.20;;;;;;5071811;28;20192;-62
2022/11/30 05:03:58;;;;;;;0.40;0.40;;;14.90;92.10;;;;;;5071517;28;20339;-62
2022/11/30 05:06:47;;;;;;;2.97;2.78;;;15.00;92.10;;;;;;5071588;28;20276;-62
2022/11/30 05:09:35;;;;;;;0.40;0.40;;;14.90;92.00;;;;;;5071692;28;20232;-62
2022/11/30 05:12:23;;;;;;;0.40;0.40;;;14.90;92.30;;;;;;5071225;28;20224;-61
2022/11/30 05:15:11;;;;;;;0.47;0.47;;;14.90;92.30;;;;;;5071464;28;20228;-61
2022/11/30 05:18:01;;;;;;;0.50;0.50;;;14.90;92.40;;;;;;5071706;28;20226;-61
2022/11/30 05:20:50;;;;;;;0.50;0.50;;;14.90;92.50;;;;;;5072260;28;20250;-61
2022/11/30 05:23:38;;;;;;;0.40;0.40;;;14.90;92.40;;;;;;5072410;28;20683;-62
2022/11/30 05:26:26;;;;;;;0.40;0.40;;;15.00;92.40;;;;;;5071833;28;20290;-61
2022/11/30 05:29:14;;;;;;;0.40;0.40;;;15.00;92.20;;;;;;5071388;28;20236;-62
2022/11/30 05:32:03;;;;;;;0.50;0.50;;;15.00;92.20;;;;;;5071500;28;20657;-62
2022/11/30 05:34:52;;;;;;;0.40;0.40;;;15.00;92.30;;;;;;5072307;28;20283;-62
2022/11/30 05:37:41;;;;;;;0.50;0.50;;;15.00;92.20;;;;;;5071279;28;20203;-62
2022/11/30 05:40:31;;;;;;;0.40;0.40;;;15.10;92.20;;;;;;5070903;28;20201;-62
2022/11/30 05:43:19;;;;;;;1.15;1.15;;;15.10;92.10;;;;;;5071468;28;20216;-62
2022/11/30 05:46:09;;;;;;;0.40;0.40;;;15.10;92.10;;;;;;5071201;28;20258;-61
2022/11/30 05:48:57;;;;;;;0.40;0.40;;;15.10;92.10;;;;;;5072185;28;20240;-61
2022/11/30 05:51:46;;;;;;;0.68;0.68;;;15.10;92.20;;;;;;5071602;28;20305;-62
2022/11/30 05:54:34;;;;;;;2.00;1.90;;;15.10;92.00;;;;;;5075353;28;20731;-62
2022/11/30 05:57:22;;;;;;;0.40;0.40;;;15.10;92.10;;;;;;5074817;28;20580;-61
2022/11/30 06:00:11;;;;;;;2.67;1.65;;;15.10;92.00;;;;;;5074606;28;20215;-62
2022/11/30 06:02:59;;;;;;;0.50;0.50;;;15.10;92.00;;;;;;5074762;28;20846;-62
2022/11/30 06:05:50;;;;;;;0.45;0.45;;;15.10;92.00;;;;;;5075512;28;20203;-61
2022/11/30 06:08:39;;;;;;;0.40;0.40;;;15.10;92.30;;;;;;5074779;28;20205;-61
2022/11/30 06:11:27;;;;;;;2.88;2.67;;;15.10;92.00;;;;;;5074269;28;20274;-62
2022/11/30 06:14:15;;;;;;;0.40;0.40;;;15.10;92.00;;;;;;5074505;28;20363;-61
2022/11/30 06:17:03;;;;;;;0.40;0.40;;;15.20;92.00;;;;;;5074539;28;20228;-61
2022/11/30 06:19:51;;;;;;;0.50;0.50;;;15.10;92.00;;;;;;5075015;28;20235;-61
2022/11/30 06:22:39;;;;;;;0.70;0.70;;;15.00;92.00;;;;;;5074418;28;20228;-62
2022/11/30 06:25:29;;;;;;;0.50;0.50;;;15.00;91.90;;;;;;5074836;28;20232;-61
2022/11/30 06:28:17;;;;;;;0.47;0.47;;;15.00;91.90;;;;;;5074392;28;20293;-61
2022/11/30 06:31:06;;;;;;;17.60;15.80;;;15.00;91.90;;;;;;5074725;28;20256;-62
2022/11/30 06:33:56;;;;;;;1.35;1.35;;;15.00;92.00;;;;;;5074429;28;20264;-61
2022/11/30 06:36:44;;;;;;;0.40;0.40;;;14.90;92.00;;;;;;5074841;28;20262;-61
2022/11/30 06:39:32;;;;;;;0.67;0.67;;;15.00;92.00;;;;;;5073742;28;20201;-61
2022/11/30 06:42:41;;;;;;;0.40;0.40;;;14.90;92.00;;;;;;5074072;28;20219;-62
2022/11/30 06:45:30;;;;;;;0.40;0.40;;;15.00;92.00;;;;;;5074113;28;20236;-61
2022/11/30 06:48:21;;;;;;;0.40;0.40;;;15.10;92.10;;;;;;5074159;28;20211;-61
2022/11/30 06:51:10;;;;;;;0.40;0.40;;;14.40;91.90;;;;;;5073821;28;20213;-61
2022/11/30 06:53:58;;;;;;;0.40;0.40;;;14.90;92.10;;;;;;5074382;28;20220;-61
2022/11/30 06:56:46;;;;;;;0.40;0.40;;;15.00;92.10;;;;;;5074126;28;20279;-62
2022/11/30 06:59:36;;;;;;;0.40;0.40;;;14.90;92.00;;;;;;5073704;28;20246;-61
2022/11/30 07:02:24;;;;;;;0.40;0.40;;;14.90;92.00;;;;;;5066758;28;20219;-61
2022/11/30 07:05:12;;;;;;;0.40;0.40;;;14.90;92.00;;;;;;5072495;28;20657;-61
2022/11/30 07:08:00;;;;;;;0.40;0.40;;;14.90;92.00;;;;;;5073628;28;20280;-62
2022/11/30 07:10:48;;;;;;;0.40;0.40;;;14.90;92.00;;;;;;5074466;28;20688;-61
2022/11/30 07:13:37;;;;;;;0.40;0.40;;;15.00;92.20;;;;;;5069379;28;20225;-61
2022/11/30 07:16:26;;;;;;;0.40;0.40;;;14.90;92.10;;;;;;5073502;28;20695;-61
2022/11/30 07:19:14;;;;;;;0.40;0.40;;;15.00;92.20;;;;;;5073394;28;20592;-62
2022/11/30 07:22:02;;;;;;;0.50;0.50;;;14.90;92.00;;;;;;5091784;28;20542;-61
2022/11/30 07:27:56;;;;;;;0.40;0.40;;;15.00;92.10;;;;;;5072679;28;20192;-62
2022/11/30 07:30:44;;;;;;;0.40;0.40;;;15.00;92.10;;;;;;5072105;28;20212;-62
2022/11/30 07:33:33;;;;;;;0.43;0.43;;;15.00;92.10;;;;;;5072192;28;20259;-61
2022/11/30 07:36:23;;;;;;;0.40;0.40;;;15.00;92.10;;;;;;5072831;28;20262;-62
2022/11/30 07:39:12;;;;;;;1.23;1.23;;;15.00;92.00;;;;;;5073053;28;20196;-62
2022/11/30 07:42:00;;;;;;;1.15;1.10;;;15.00;91.70;;;;;;5072636;28;20350;-62
2022/11/30 07:44:49;;;;;;;0.67;0.67;;;13.70;91.40;;;;;;5072486;28;20279;-62
2022/11/30 07:47:45;;;;;;;0.85;0.85;;;15.00;92.00;;;;;;5072242;28;20764;-62
2022/11/30 07:50:34;;;;;;;5.50;5.18;;;15.00;91.90;;;;;;5071824;28;20275;-62
2022/11/30 07:53:22;;;;;;;3.75;3.50;;;15.00;91.80;;;;;;5072038;28;20270;-62
2022/11/30 07:56:13;;;;;;;0.40;0.40;;;15.00;92.00;;;;;;5071674;28;20258;-62
2022/11/30 07:59:02;;;;;;;0.40;0.40;;;15.00;92.00;;;;;;5052518;28;20421;-62
2022/11/30 08:01:50;;;;;;;0.50;0.50;;;15.00;92.00;;;;;;5052472;28;20205;-62
2022/11/30 08:04:38;;;;;;;0.50;0.50;;;15.00;92.00;;;;;;5052281;28;20204;-62
2022/11/30 08:07:27;;;;;;;1.03;1.03;;;15.00;92.10;;;;;;5050916;28;20205;-62
2022/11/30 08:10:15;;;;;;;0.63;0.63;;;14.90;92.00;;;;;;5069094;28;20204;-62
2022/11/30 08:13:04;;;;;;;0.60;0.60;;;14.90;92.00;;;;;;5076466;28;20232;-61
2022/11/30 08:15:52;;;;;;;0.40;0.40;;;14.90;92.00;;;;;;5075359;28;20208;-62
2022/11/30 08:18:41;;;;;;;2.47;2.28;;;14.90;91.90;;;;;;5075604;28;20200;-62
2022/11/30 08:21:30;;;;;;;0.40;0.40;;;14.90;92.20;;;;;;5073627;28;20563;-62
2022/11/30 08:24:20;;;;;;;0.40;0.40;;;15.00;92.30;;;;;;5073321;28;20232;-62
2022/11/30 08:27:08;;;;;;;0.40;0.40;;;15.00;92.20;;;;;;5074605;28;20224;-62
2022/11/30 08:29:56;;;;;;;0.40;0.40;;;15.00;92.20;;;;;;5074532;28;20288;-62
2022/11/30 08:32:44;;;;;;;1.90;1.80;;;15.00;92.10;;;;;;5072530;28;20319;-62
2022/11/30 08:35:32;;;;;;;0.40;0.40;;;15.00;92.10;;;;;;5074934;28;20573;-62
2022/11/30 08:38:21;;;;;;;0.40;0.40;;;15.00;92.10;;;;;;5075474;28;20277;-62
2022/11/30 08:41:12;;;;;;;0.60;0.60;;;15.00;91.90;;;;;;5074229;28;20208;-62
2022/11/30 08:44:01;;;;;;;0.40;0.40;;;15.10;92.00;;;;;;5072008;28;20235;-62
2022/11/30 08:46:50;;;;;;;0.50;0.50;;;15.10;92.00;;;;;;5070599;28;20287;-62
2022/11/30 08:49:59;;;;;;;5.13;4.83;;;15.10;91.80;;;;;;5068428;28;20211;-62
2022/11/30 08:52:47;;;;;;;0.40;0.40;;;15.10;92.00;;;;;;5072119;28;20223;-62
2022/11/30 08:55:35;;;;;;;0.83;0.83;;;15.20;92.00;;;;;;5072328;28;20192;-62
2022/11/30 08:58:25;;;;;;;0.40;0.40;;;15.20;92.00;;;;;;5089551;28;20199;-62
2022/11/30 09:01:15;;;;;;;0.60;0.60;;;15.20;92.00;;;;;;5091074;28;20338;-62
2022/11/30 09:04:03;;;;;;;0.40;0.40;;;15.20;91.90;;;;;;5091855;28;20219;-62
2022/11/30 09:06:51;;;;;;;0.40;0.40;;;15.20;91.90;;;;;;5091473;28;20200;-62
2022/11/30 09:09:40;;;;;;;0.40;0.40;;;15.10;91.90;;;;;;5052087;28;20193;-62
2022/11/30 09:12:28;;;;;;;0.50;0.50;;;15.20;92.00;;;;;;5051087;28;20232;-62
2022/11/30 09:15:17;;;;;;;0.40;0.40;;;15.20;91.90;;;;;;5050805;28;20323;-62
2022/11/30 09:18:05;;;;;;;0.40;0.40;;;15.20;92.00;;;;;;5051212;28;20282;-62
2022/11/30 09:20:53;;;;;;;0.40;0.40;;;15.20;92.00;;;;;;5050397;28;20197;-62
2022/11/30 09:23:42;;;;;;;0.40;0.40;;;15.20;92.00;;;;;;5051187;28;20379;-62
2022/11/30 09:26:30;;;;;;;0.70;0.70;;;15.20;91.80;;;;;;5051722;28;20243;-62
2022/11/30 09:29:18;;;;;;;0.40;0.40;;;15.20;91.80;;;;;;5053617;28;20707;-62
2022/11/30 09:32:08;;;;;;;0.40;0.40;;;15.20;91.90;;;;;;5065964;28;20218;-62
2022/11/30 09:34:56;;;;;;;1.58;1.58;;;15.20;91.90;;;;;;5074655;28;20289;-62
2022/11/30 09:37:44;;;;;;;0.40;0.40;;;15.20;91.90;;;;;;5073225;28;20211;-62
2022/11/30 09:40:34;;;;;;;0.40;0.40;;;15.20;91.80;;;;;;5074901;28;20279;-62
2022/11/30 09:43:34;;;;;;;0.40;0.40;;;15.20;91.90;;;;;;5074564;28;20234;-62
2022/11/30 09:46:30;;;;;;;0.63;0.63;;;15.10;91.90;;;;;;5074839;28;20224;-62
2022/11/30 09:49:23;;;;;;;0.40;0.40;;;15.10;91.80;;;;;;5074590;28;20204;-62
2022/11/30 09:52:15;;;;;;;0.40;0.40;;;15.10;97.00;;;;;;5073734;28;20650;-62
2022/11/30 09:55:09;;;;;;;0.40;0.40;;;15.10;91.80;;;;;;5074964;28;20270;-62
2022/11/30 09:58:01;;;;;;;0.40;0.40;;;15.10;91.70;;;;;;5088173;28;20276;-62
2022/11/30 10:00:49;;;;;;;0.40;0.40;;;15.10;91.70;;;;;;5095059;28;20252;-62
2022/11/30 10:03:38;;;;;;;0.40;0.40;;;15.10;91.80;;;;;;5085702;28;20291;-62
2022/11/30 10:06:37;;;;;;;1.87;1.77;;;15.10;91.70;;;;;;5073664;28;20243;-62
2022/11/30 10:09:37;;;;;;;0.40;0.40;;;15.10;91.90;;;;;;5074237;28;20200;-62
2022/11/30 10:12:30;;;;;;;0.85;0.85;;;15.10;91.80;;;;;;5074087;28;20232;-62
2022/11/30 10:15:29;;;;;;;0.40;0.40;;;15.10;91.80;;;;;;5073704;28;20204;-62
2022/11/30 10:18:29;;;;;;;0.40;0.40;;;15.20;91.90;;;;;;5073793;28;20279;-62
2022/11/30 10:21:32;;;;;;;0.40;0.40;;;15.20;91.90;;;;;;5073690;28;20303;-62
2022/11/30 10:24:31;;;;;;;0.40;0.40;;;15.20;91.70;;;;;;5074331;28;20196;-62
2022/11/30 10:27:36;;;;;;;0.40;0.40;;;15.20;91.80;;;;;;5073932;28;20201;-62
2022/11/30 10:30:25;;;;;;;0.40;0.40;;;15.20;91.60;;;;;;5074220;28;20283;-62
2022/11/30 10:33:17;;;;;;;4.00;3.80;;;15.20;91.40;;;;;;5098228;22;20319;-64
2022/11/30 10:36:11;;;;;;;0.40;0.40;;;15.20;91.50;;;;;;5074197;28;20230;-64
2022/11/30 10:39:04;;;;;;;0.40;0.40;;;15.20;91.70;;;;;;5075274;28;20232;-64
2022/11/30 10:41:57;;;;;;;0.82;0.82;;;15.20;91.70;;;;;;5073039;28;20192;-64
2022/11/30 10:44:52;;;;;;;0.40;0.40;;;15.20;91.70;;;;;;5054692;28;20197;-65
2022/11/30 10:47:46;;;;;;;0.77;0.77;;;15.20;91.60;;;;;;5053639;28;20281;-65
2022/11/30 10:50:35;;;;;;;0.40;0.40;;;15.20;91.60;;;;;;5054552;28;20197;-64
2022/11/30 10:53:23;;;;;;;0.40;0.40;;;15.20;91.60;;;;;;5059095;28;20268;-64
2022/11/30 10:56:14;;;;;;;0.40;0.40;;;15.20;91.60;;;;;;5073049;28;20216;-65
2022/11/30 10:59:10;;;;;;;0.40;0.40;;;15.20;91.70;;;;;;5053405;28;20228;-65
2022/11/30 11:01:58;;;;;;;0.40;0.40;;;15.20;91.70;;;;;;5052907;28;20209;-65
2022/11/30 11:04:46;;;;;;;0.40;0.40;;;15.20;91.50;;;;;;5052513;28;20198;-65
2022/11/30 11:07:45;;;;;;;0.40;0.40;;;15.10;91.70;;;;;;5041674;28;20667;-64
2022/11/30 11:10:35;;;;;;;0.40;0.40;;;15.20;91.70;;;;;;5034632;28;20682;-64
2022/11/30 11:13:38;;;;;;;0.60;0.60;;;15.10;91.60;;;;;;5033729;28;20718;-64
2022/11/30 11:16:26;;;;;;;1.27;1.27;;;15.10;91.50;;;;;;5034598;28;20240;-64
2022/11/30 11:19:23;;;;;;;2.80;2.67;;;15.10;91.50;;;;;;5033948;28;20204;-64
2022/11/30 11:22:17;;;;;;;0.40;0.40;;;15.20;91.80;;;;;;5032436;28;20228;-64
2022/11/30 11:25:19;;;;;;;0.40;0.40;;;15.20;91.80;;;;;;5034819;28;20248;-65
2022/11/30 11:28:13;;;;;;;1.40;1.40;;;15.20;91.70;;;;;;5034564;28;20643;-64
2022/11/30 11:31:17;;;;;;;0.40;0.40;;;15.20;91.70;;;;;;5032797;28;20315;-64
2022/11/30 11:34:22;;;;;;;0.40;0.40;;;15.20;91.70;;;;;;5033742;28;20308;-64
2022/11/30 11:37:21;;;;;;;0.40;0.40;;;15.20;91.70;;;;;;5033260;28;20230;-64
2022/11/30 11:40:14;;;;;;;0.40;0.40;;;15.30;91.60;;;;;;5032915;28;20205;-64
2022/11/30 11:43:04;;;;;;;0.40;0.40;;;15.30;91.70;;;;;;5033835;28;20329;-64
2022/11/30 11:45:55;;;;;;;0.40;0.40;;;15.30;91.60;;;;;;5033711;28;20202;-64
2022/11/30 11:48:56;;;;;;;0.40;0.40;;;15.30;91.70;;;;;;5034398;28;20202;-65
2022/11/30 11:51:44;;;;;;;1.17;1.17;;;15.30;91.60;;;;;;5033969;28;20213;-64
2022/11/30 11:54:36;;;;;;;0.40;0.40;;;15.30;91.60;;;;;;5032830;28;20229;-64
2022/11/30 11:57:34;;;;;;;2.10;2.00;;;15.30;91.50;;;;;;5034184;28;20750;-64
2022/11/30 12:00:24;;;;;;;0.40;0.40;;;15.40;91.60;;;;;;5033295;28;20202;-64
2022/11/30 12:03:18;;;;;;;0.40;0.40;;;15.30;91.50;;;;;;5032177;28;20226;-64
2022/11/30 12:06:13;;;;;;;1.83;1.73;;;15.40;91.50;;;;;;5031610;28;20281;-64
2022/11/30 12:09:06;;;;;;;4.15;3.80;;;15.30;91.50;;;;;;5032195;28;20198;-64
2022/11/30 12:11:54;;;;;;;0.40;0.40;;;15.30;91.50;;;;;;5031749;28;20240;-65
2022/11/30 12:14:42;;;;;;;0.40;0.40;;;15.30;91.50;;;;;;5031262;28;20304;-64
2022/11/30 12:17:46;;;;;;;0.40;0.40;;;15.30;91.50;;;;;;5032289;28;20230;-64
2022/11/30 12:20:46;;;;;;;3.60;3.35;;;15.30;91.50;;;;;;5030357;28;20277;-64
2022/11/30 12:23:50;;;;;;;0.40;0.40;;;15.30;91.50;;;;;;5031346;28;20694;-64
2022/11/30 12:26:45;;;;;;;0.40;0.40;;;15.30;91.50;;;;;;5031453;28;20674;-65
2022/11/30 12:29:45;;;;;;;7.23;6.93;;;15.30;91.60;;;;;;5031129;28;20678;-64
2022/11/30 12:32:52;;;;;;;0.40;0.40;;;15.30;91.50;;;;;;5032712;28;20285;-64
2022/11/30 12:35:51;;;;;;;0.40;0.40;;;15.30;91.60;;;;;;5050914;28;20225;-64
2022/11/30 12:38:47;;;;;;;0.40;0.40;;;15.30;91.60;;;;;;5050860;28;20283;-64
2022/11/30 12:41:41;;;;;;;0.60;0.60;;;15.20;91.60;;;;;;5050787;28;20201;-64
2022/11/30 12:44:41;;;;;;;0.40;0.40;;;15.20;91.80;;;;;;5051104;28;20315;-64
2022/11/30 12:47:43;;;;;;;0.40;0.40;;;15.20;91.60;;;;;;5052588;28;20274;-64
2022/11/30 12:50:41;;;;;;;0.40;0.40;;;15.20;91.70;;;;;;5050622;28;20266;-65
2022/11/30 12:53:34;;;;;;;0.40;0.40;;;15.20;91.60;;;;;;5050065;28;20304;-65
2022/11/30 12:56:34;;;;;;;0.40;0.40;;;15.20;91.80;;;;;;5051260;28;20283;-65
2022/11/30 12:59:29;;;;;;;0.80;0.80;;;15.20;91.70;;;;;;5050994;28;20276;-65
2022/11/30 13:02:48;;;;;;;1.00;1.00;;;15.30;91.70;;;;;;5051624;28;20279;-64
2022/11/30 13:05:42;;;;;;;0.93;0.93;;;15.30;91.70;;;;;;5055249;28;20289;-65
2022/11/30 13:08:37;;;;;;;0.63;0.63;;;15.30;91.70;;;;;;5054252;28;20743;-65
2022/11/30 13:11:33;;;;;;;4.30;4.10;;;15.30;91.70;;;;;;5055828;28;20292;-66
2022/11/30 13:14:23;;;;;;;0.40;0.40;;;15.30;91.60;;;;;;5054951;28;20256;-65
2022/11/30 13:17:18;;;;;;;0.50;0.50;;;15.30;91.60;;;;;;5054101;28;20246;-64
2022/11/30 13:20:16;;;;;;;0.40;0.40;;;15.40;91.60;;;;;;5053448;28;20279;-65
2022/11/30 13:23:09;;;;;;;0.40;0.40;;;15.40;91.50;;;;;;5054224;28;20695;-66
2022/11/30 13:26:05;;;;;;;0.65;0.65;;;15.40;91.50;;;;;;5054180;28;20201;-65
2022/11/30 13:29:20;;;;;;;2.70;2.58;;;15.40;91.50;;;;;;5055243;28;20670;-65
2022/11/30 13:32:11;;;;;;;0.40;0.40;;;15.40;91.60;;;;;;5054202;28;20208;-65
2022/11/30 13:35:40;;;;;;;0.40;0.40;;;15.40;91.50;;;;;;5054259;28;20225;-65
2022/11/30 13:38:29;;;;;;;0.40;0.40;;;15.40;91.50;;;;;;5053771;28;20724;-65
2022/11/30 13:41:25;;;;;;;0.40;0.40;;;15.40;91.50;;;;;;5054266;28;20197;-65
2022/11/30 13:44:24;;;;;;;0.40;0.40;;;15.40;91.50;;;;;;5054697;28;20253;-65
2022/11/30 13:47:18;;;;;;;0.95;0.95;;;15.40;91.50;;;;;;5053778;28;20257;-65
2022/11/30 13:50:15;;;;;;;0.40;0.40;;;15.40;91.50;;;;;;5053022;28;20274;-65
2022/11/30 13:53:19;;;;;;;1.52;1.48;;;15.40;91.60;;;;;;5053438;28;20312;-66
2022/11/30 13:56:34;;;;;;;0.65;0.65;;;15.30;91.50;;;;;;5054144;28;20280;-65
2022/11/30 13:59:39;;;;;;;0.40;0.40;;;15.30;91.50;;;;;;5033891;28;20292;-65
2022/11/30 14:03:15;;;;;;;0.40;0.40;;;15.30;91.40;;;;;;5034236;28;20325;-65
2022/11/30 14:06:25;;;;;;;0.40;0.40;;;15.30;91.60;;;;;;5034061;28;20204;-65
2022/11/30 14:09:17;;;;;;;0.40;0.40;;;15.30;91.60;;;;;;5034493;28;20676;-65
2022/11/30 14:12:38;;;;;;;0.50;0.50;;;15.30;91.50;;;;;;5034362;28;20361;-65
2022/11/30 14:15:53;;;;;;;0.40;0.40;;;15.20;91.50;;;;;;5033605;28;20702;-64
2022/11/30 14:18:44;;;;;;;0.40;0.40;;;15.20;91.50;;;;;;5033646;28;20583;-64
2022/11/30 14:21:34;;;;;;;0.40;0.40;;;15.20;91.50;;;;;;5034446;28;20329;-66
2022/11/30 14:24:24;;;;;;;0.57;0.57;;;15.20;91.70;;;;;;5046333;28;20230;-66
2022/11/30 14:27:17;;;;;;;0.40;0.40;;;15.20;91.60;;;;;;5046587;28;20279;-65
2022/11/30 14:30:06;;;;;;;0.40;0.40;;;15.20;91.60;;;;;;5043471;28;20245;-65
2022/11/30 14:33:04;;;;;;;0.40;0.40;;;15.30;91.70;;;;;;5033508;28;20312;-66
2022/11/30 14:35:56;;;;;;;0.40;0.40;;;15.30;91.60;;;;;;5033726;28;20253;-65
2022/11/30 14:38:44;;;;;;;0.40;0.40;;;15.20;91.50;;;;;;5033410;28;20261;-65
2022/11/30 14:41:32;;;;;;;0.40;0.40;;;15.30;91.60;;;;;;5034370;28;20225;-66
2022/11/30 14:44:21;;;;;;;0.40;0.40;;;15.30;91.50;;;;;;5032892;28;20268;-66
2022/11/30 14:47:20;;;;;;;0.40;0.40;;;15.30;91.50;;;;;;5033392;28;20705;-65
2022/11/30 14:50:22;;;;;;;0.40;0.40;;;15.30;91.50;;;;;;5033225;28;20280;-65
2022/11/30 14:53:28;;;;;;;0.40;0.40;;;15.30;91.30;;;;;;5033163;28;20225;-65
2022/11/30 14:56:24;;;;;;;0.40;0.40;;;15.30;91.40;;;;;;5033003;28;20359;-65